Time;durP1;ratioP1;P1;durP2;ratioP2;P2;SDS_P1;SDS_P2;PMS_P1;PMS_P2;Temp;Humidity;BMP_temperature;BMP_pressure;BME280_temperature;BME280_humidity;BME280_pressure;Samples;Min_cycle;Max_cycle;Signal;HPM_P1;HPM_P2
2022/03/18 00:02:06;;;;;;;5.70;3.70;;;5.00;99.90;;;;;;4972961;28;20444;-82
2022/03/18 00:04:32;;;;;;;7.17;5.20;;;5.00;99.90;;;;;;4972693;28;20434;-83
2022/03/18 00:06:57;;;;;;;7.13;5.40;;;5.00;99.90;;;;;;4988568;28;20673;-83
2022/03/18 00:09:23;;;;;;;9.77;5.60;;;5.00;99.90;;;;;;4974037;28;20221;-82
2022/03/18 00:11:49;;;;;;;6.50;4.90;;;5.00;99.90;;;;;;4973887;28;20279;-82
2022/03/18 00:14:14;;;;;;;7.33;5.40;;;5.00;99.90;;;;;;4972344;28;20642;-83
2022/03/18 00:16:40;;;;;;;6.50;5.83;;;5.00;99.90;;;;;;4973241;28;20181;-82
2022/03/18 00:19:06;;;;;;;8.13;5.53;;;5.00;99.90;;;;;;4972533;28;20187;-83
2022/03/18 00:21:34;;;;;;;8.20;4.60;;;5.00;99.90;;;;;;4973937;28;20426;-82
2022/03/18 00:24:00;;;;;;;9.43;4.70;;;5.10;99.90;;;;;;4972325;28;20701;-82
2022/03/18 00:26:26;;;;;;;6.40;4.60;;;5.10;99.90;;;;;;4972060;28;20459;-83
2022/03/18 00:28:52;;;;;;;5.67;4.83;;;5.00;99.90;;;;;;4973571;28;20444;-83
2022/03/18 00:31:17;;;;;;;11.53;5.70;;;5.10;99.90;;;;;;4973665;28;20692;-82
2022/03/18 00:33:43;;;;;;;6.90;4.27;;;5.10;99.90;;;;;;4972219;28;20200;-82
2022/03/18 00:36:09;;;;;;;6.17;4.20;;;5.10;99.90;;;;;;4988490;28;20305;-84
2022/03/18 00:38:34;;;;;;;5.40;3.50;;;5.20;99.90;;;;;;4972149;28;20182;-83
2022/03/18 00:41:01;;;;;;;7.37;4.20;;;5.20;99.90;;;;;;4973460;28;20184;-82
2022/03/18 00:43:26;;;;;;;6.97;4.37;;;5.10;99.90;;;;;;4972288;28;20231;-82
2022/03/18 00:45:52;;;;;;;4.27;3.53;;;5.00;99.90;;;;;;4971971;28;20542;-82
2022/03/18 00:53:46;;;;;;;6.83;3.50;;;5.00;99.90;;;;;;4973618;28;20804;-83
2022/03/18 00:56:12;;;;;;;5.33;3.50;;;5.00;99.90;;;;;;4972002;28;20425;-81
2022/03/18 00:58:38;;;;;;;5.87;3.60;;;5.00;99.90;;;;;;4971902;28;20228;-81
2022/03/18 01:01:04;;;;;;;6.47;4.10;;;4.90;99.90;;;;;;4972121;28;20509;-83
2022/03/18 01:03:29;;;;;;;7.10;4.77;;;4.90;99.90;;;;;;4972015;28;20696;-83
2022/03/18 01:05:55;;;;;;;5.70;3.80;;;4.90;99.90;;;;;;4971914;28;20634;-82
2022/03/18 01:08:21;;;;;;;9.50;4.30;;;4.70;99.90;;;;;;4971792;28;20194;-82
2022/03/18 01:10:46;;;;;;;6.83;4.23;;;4.60;99.90;;;;;;4971877;28;20277;-82
2022/03/18 01:13:12;;;;;;;6.23;3.83;;;4.60;99.90;;;;;;4994850;28;20210;-83
2022/03/18 01:15:37;;;;;;;4.80;3.27;;;4.50;99.90;;;;;;4973910;28;20183;-83
2022/03/18 01:18:03;;;;;;;4.93;3.40;;;4.40;99.90;;;;;;4973601;28;20229;-83
2022/03/18 01:20:29;;;;;;;5.10;3.90;;;4.40;99.90;;;;;;4973021;28;20194;-83
2022/03/18 01:22:55;;;;;;;7.57;4.60;;;4.40;99.90;;;;;;4972477;28;20274;-83
2022/03/18 01:25:21;;;;;;;5.43;3.47;;;4.30;99.90;;;;;;4973862;28;20450;-82
2022/03/18 01:27:46;;;;;;;8.50;4.40;;;4.30;99.90;;;;;;4972800;28;20554;-83
2022/03/18 01:30:16;;;;;;;3.97;3.30;;;4.20;99.90;;;;;;4992589;28;20562;-83
2022/03/18 01:32:42;;;;;;;5.60;3.60;;;4.20;99.90;;;;;;4976239;28;20269;-82
2022/03/18 01:35:08;;;;;;;5.23;3.33;;;4.20;99.90;;;;;;4975945;28;20581;-82
2022/03/18 01:37:33;;;;;;;6.50;4.03;;;4.20;99.90;;;;;;4975881;28;20277;-84
2022/03/18 01:39:59;;;;;;;4.57;3.50;;;4.20;99.90;;;;;;4975752;28;20847;-82
2022/03/18 01:42:25;;;;;;;5.77;3.70;;;4.10;99.90;;;;;;4976914;28;20206;-83
2022/03/18 01:44:51;;;;;;;5.37;3.70;;;4.00;99.90;;;;;;4975548;28;20206;-82
2022/03/18 01:47:17;;;;;;;6.77;3.30;;;4.00;99.90;;;;;;4975371;28;20469;-83
2022/03/18 01:49:43;;;;;;;5.07;3.90;;;4.00;99.90;;;;;;4975459;28;20516;-83
2022/03/18 01:52:10;;;;;;;5.43;3.40;;;4.00;99.90;;;;;;4991753;28;20225;-83
2022/03/18 01:54:45;;;;;;;5.20;2.93;;;4.00;99.90;;;;;;4975398;28;20217;-82
2022/03/18 01:57:12;;;;;;;5.53;3.90;;;4.00;99.90;;;;;;4991600;28;20469;-83
2022/03/18 01:59:38;;;;;;;5.87;3.47;;;4.00;99.90;;;;;;4975273;28;20427;-82
2022/03/18 02:02:04;;;;;;;6.07;3.43;;;4.00;99.90;;;;;;4976611;28;20448;-82
2022/03/18 02:04:32;;;;;;;6.50;3.23;;;4.00;99.90;;;;;;4991379;28;20504;-83
2022/03/18 02:06:59;;;;;;;6.93;4.93;;;4.10;99.90;;;;;;4991258;28;20261;-82
2022/03/18 02:09:25;;;;;;;6.63;3.67;;;4.10;99.90;;;;;;4975062;28;20460;-83
2022/03/18 02:11:51;;;;;;;6.37;4.83;;;4.20;99.90;;;;;;4975039;28;20502;-83
2022/03/18 02:14:35;;;;;;;6.00;4.03;;;4.10;99.90;;;;;;4976286;28;21027;-82
2022/03/18 02:17:06;;;;;;;6.07;4.60;;;4.10;99.90;;;;;;4990901;28;20182;-82
2022/03/18 02:19:31;;;;;;;7.50;4.80;;;4.00;99.90;;;;;;4974954;28;20429;-82
2022/03/18 02:21:58;;;;;;;6.37;3.90;;;4.00;99.90;;;;;;4976077;28;20468;-82
2022/03/18 02:24:24;;;;;;;5.93;4.10;;;3.90;99.90;;;;;;4974732;28;20581;-83
2022/03/18 02:26:52;;;;;;;7.90;4.80;;;4.00;99.90;;;;;;4975599;28;20465;-82
2022/03/18 02:29:19;;;;;;;6.87;4.70;;;3.90;99.90;;;;;;4974658;28;20856;-83
2022/03/18 02:31:45;;;;;;;5.63;3.33;;;3.90;99.90;;;;;;4974729;28;20433;-83
2022/03/18 02:34:11;;;;;;;7.97;4.73;;;3.90;99.90;;;;;;4974590;28;20967;-82
2022/03/18 02:36:37;;;;;;;9.93;5.27;;;3.90;99.90;;;;;;4990489;28;20437;-81
2022/03/18 02:39:03;;;;;;;5.37;4.40;;;3.80;99.90;;;;;;4990491;28;20429;-83
2022/03/18 02:41:28;;;;;;;6.40;3.73;;;3.80;99.90;;;;;;4975866;28;20186;-83
2022/03/18 02:43:54;;;;;;;6.67;3.90;;;3.70;99.90;;;;;;4974492;28;20449;-83
2022/03/18 02:46:21;;;;;;;4.80;3.70;;;3.70;99.90;;;;;;4975426;28;20206;-82
2022/03/18 02:48:47;;;;;;;8.83;4.77;;;3.60;99.90;;;;;;4974188;28;20196;-83
2022/03/18 02:51:13;;;;;;;5.87;3.73;;;3.60;99.90;;;;;;4974307;28;20422;-82
2022/03/18 02:53:39;;;;;;;8.27;4.47;;;3.60;99.90;;;;;;4990315;28;20206;-83
2022/03/18 02:56:07;;;;;;;5.00;3.90;;;3.50;99.90;;;;;;4975238;28;20821;-82
2022/03/18 02:58:35;;;;;;;6.90;4.77;;;3.50;99.90;;;;;;4974043;28;20419;-82
2022/03/18 03:01:01;;;;;;;5.77;3.60;;;3.50;99.90;;;;;;4973987;28;20941;-83
2022/03/18 03:03:27;;;;;;;5.30;4.40;;;3.50;99.90;;;;;;4973908;28;20972;-82
2022/03/18 03:08:37;;;;;;;7.53;3.73;;;3.40;99.90;;;;;;4975006;28;20505;-82
2022/03/18 03:11:02;;;;;;;5.67;4.13;;;3.40;99.90;;;;;;4973767;28;20425;-82
2022/03/18 03:13:28;;;;;;;5.73;4.27;;;3.50;99.90;;;;;;4974898;28;20213;-82
2022/03/18 03:15:53;;;;;;;5.73;3.63;;;3.50;99.90;;;;;;4989714;28;20671;-82
2022/03/18 03:18:19;;;;;;;7.03;4.80;;;3.50;99.90;;;;;;4974742;28;20185;-83
2022/03/18 03:20:44;;;;;;;4.40;3.20;;;3.50;99.90;;;;;;4989815;28;20614;-83
2022/03/18 03:23:10;;;;;;;6.50;4.30;;;3.60;99.90;;;;;;4973443;28;20206;-82
2022/03/18 03:25:36;;;;;;;5.70;4.20;;;3.60;99.90;;;;;;4973311;28;20193;-83
2022/03/18 03:28:02;;;;;;;8.03;5.03;;;3.50;99.90;;;;;;4973391;28;20236;-82
2022/03/18 03:30:27;;;;;;;5.03;4.03;;;3.50;99.90;;;;;;4973423;28;20645;-83
2022/03/18 03:32:53;;;;;;;4.90;3.77;;;3.50;99.90;;;;;;4974524;28;20425;-83
2022/03/18 03:35:19;;;;;;;7.60;4.40;;;3.50;99.90;;;;;;4973260;28;20244;-82
2022/03/18 03:37:45;;;;;;;7.13;5.37;;;3.40;99.90;;;;;;4972923;28;20426;-82
2022/03/18 03:40:13;;;;;;;5.93;3.93;;;3.40;99.90;;;;;;4974581;28;20186;-82
2022/03/18 03:42:43;;;;;;;7.20;4.10;;;3.40;99.90;;;;;;4974390;28;20675;-82
2022/03/18 03:45:13;;;;;;;6.80;3.50;;;3.40;99.90;;;;;;4974226;28;20882;-83
2022/03/18 03:47:39;;;;;;;5.90;4.17;;;3.40;99.90;;;;;;4972755;28;20537;-82
2022/03/18 03:50:06;;;;;;;5.87;3.80;;;3.40;99.90;;;;;;4974040;28;20417;-82
2022/03/18 03:52:34;;;;;;;5.57;4.03;;;3.40;99.90;;;;;;4972786;28;20420;-83
2022/03/18 03:55:00;;;;;;;6.60;4.33;;;3.50;99.90;;;;;;4974101;28;20432;-83
2022/03/18 03:57:26;;;;;;;7.30;4.30;;;3.50;99.90;;;;;;4972584;28;20944;-82
2022/03/18 03:59:52;;;;;;;5.47;3.83;;;3.50;99.90;;;;;;4989088;28;20662;-82
2022/03/18 04:02:18;;;;;;;6.67;4.90;;;3.50;99.90;;;;;;4972999;28;20633;-82
2022/03/18 04:04:44;;;;;;;5.30;4.00;;;3.50;99.90;;;;;;4973989;28;20437;-82
2022/03/18 04:07:10;;;;;;;5.57;4.43;;;3.50;99.90;;;;;;4988550;28;20487;-82
2022/03/18 04:09:35;;;;;;;8.03;4.63;;;3.50;99.90;;;;;;4972668;28;20240;-82
2022/03/18 04:12:01;;;;;;;7.63;4.30;;;3.50;99.90;;;;;;4988945;28;20189;-83
2022/03/18 04:16:54;;;;;;;6.43;4.23;;;3.40;99.90;;;;;;5048743;28;20246;-69
2022/03/18 04:19:20;;;;;;;12.80;4.90;;;3.40;99.90;;;;;;5050633;28;20421;-69
2022/03/18 04:21:46;;;;;;;6.43;3.87;;;3.30;99.90;;;;;;5050558;28;20178;-69
2022/03/18 04:24:11;;;;;;;5.43;3.60;;;3.30;99.90;;;;;;5050554;28;20350;-69
2022/03/18 04:26:37;;;;;;;7.83;5.60;;;3.20;99.90;;;;;;5049899;28;20291;-69
2022/03/18 04:29:03;;;;;;;7.17;5.03;;;4.20;99.90;;;;;;5050969;28;20214;-69
2022/03/18 04:31:29;;;;;;;6.63;4.70;;;3.10;99.90;;;;;;5050595;28;20190;-70
2022/03/18 04:33:54;;;;;;;5.83;4.80;;;3.10;99.90;;;;;;5050657;28;20932;-70
2022/03/18 04:36:20;;;;;;;4.73;3.37;;;3.10;99.90;;;;;;5050478;28;20192;-70
2022/03/18 04:38:46;;;;;;;7.70;5.67;;;3.10;99.90;;;;;;5050344;28;20278;-69
2022/03/18 04:41:12;;;;;;;9.43;4.70;;;3.10;99.90;;;;;;5050493;28;20637;-69
2022/03/18 04:43:38;;;;;;;8.97;4.17;;;3.00;99.90;;;;;;5050419;28;20427;-69
2022/03/18 04:46:03;;;;;;;4.40;3.30;;;3.00;99.90;;;;;;5050398;28;20208;-69
2022/03/18 04:48:29;;;;;;;4.70;3.67;;;3.00;99.90;;;;;;5050209;28;20187;-70
2022/03/18 04:50:55;;;;;;;6.80;4.10;;;3.00;99.90;;;;;;5050368;28;20553;-70
2022/03/18 04:53:21;;;;;;;4.83;3.77;;;3.00;99.90;;;;;;5050294;28;20181;-70
2022/03/18 04:55:47;;;;;;;5.07;4.10;;;3.00;99.90;;;;;;5050165;28;20183;-70
2022/03/18 04:58:12;;;;;;;6.07;3.73;;;2.90;99.90;;;;;;5050006;28;20495;-69
2022/03/18 05:00:38;;;;;;;5.03;3.70;;;3.00;99.90;;;;;;5050282;28;20214;-69
2022/03/18 05:03:04;;;;;;;6.70;3.80;;;3.00;99.90;;;;;;5051535;28;20174;-69
2022/03/18 05:05:30;;;;;;;5.93;3.70;;;3.00;99.90;;;;;;5054317;28;20182;-69
2022/03/18 05:07:55;;;;;;;5.83;3.27;;;3.00;99.90;;;;;;5054033;28;20219;-70
2022/03/18 05:10:22;;;;;;;6.50;4.83;;;2.90;99.90;;;;;;5054137;28;20557;-71
2022/03/18 05:12:48;;;;;;;7.50;4.00;;;2.90;99.90;;;;;;5054328;28;20185;-68
2022/03/18 05:15:14;;;;;;;5.13;3.50;;;2.90;99.90;;;;;;5054023;28;20432;-68
2022/03/18 05:17:40;;;;;;;5.40;3.47;;;2.80;99.90;;;;;;5053926;28;20480;-69
2022/03/18 05:20:09;;;;;;;5.17;3.60;;;2.70;99.90;;;;;;5053975;28;20503;-69
2022/03/18 05:22:35;;;;;;;4.90;3.50;;;2.70;99.90;;;;;;5054087;28;20486;-69
2022/03/18 05:25:01;;;;;;;4.60;3.70;;;2.70;99.90;;;;;;5053988;28;20457;-69
2022/03/18 05:27:27;;;;;;;4.97;3.67;;;2.70;99.90;;;;;;5053634;28;20466;-68
2022/03/18 05:29:53;;;;;;;6.63;3.73;;;2.70;99.90;;;;;;5053973;28;20424;-69
2022/03/18 05:32:19;;;;;;;8.30;4.20;;;2.70;99.90;;;;;;5053823;28;20194;-69
2022/03/18 05:34:45;;;;;;;7.27;4.17;;;2.70;99.90;;;;;;5054067;28;20177;-69
2022/03/18 05:37:11;;;;;;;8.00;4.20;;;2.60;99.90;;;;;;5053425;28;20801;-69
2022/03/18 05:39:37;;;;;;;5.80;4.27;;;2.60;99.90;;;;;;5053825;28;20508;-69
2022/03/18 05:42:04;;;;;;;4.93;2.90;;;2.60;99.90;;;;;;5053590;28;20516;-68
2022/03/18 05:44:30;;;;;;;5.13;3.40;;;2.60;99.90;;;;;;5053887;28;20878;-69
2022/03/18 05:46:56;;;;;;;5.73;3.20;;;2.60;99.90;;;;;;5053209;28;21196;-69
2022/03/18 05:49:23;;;;;;;6.40;4.00;;;2.60;99.90;;;;;;5053643;28;20419;-69
2022/03/18 05:51:48;;;;;;;5.27;3.83;;;2.60;99.90;;;;;;5053575;28;20259;-70
2022/03/18 05:54:14;;;;;;;5.77;3.77;;;2.50;99.90;;;;;;5053397;28;20423;-69
2022/03/18 05:56:53;;;;;;;7.50;4.40;;;2.60;99.90;;;;;;5053268;28;20236;-69
2022/03/18 05:59:23;;;;;;;4.17;2.83;;;2.50;99.90;;;;;;5053447;28;20420;-70
2022/03/18 06:01:49;;;;;;;8.27;4.13;;;2.50;99.90;;;;;;5053450;28;20516;-69
2022/03/18 06:04:19;;;;;;;6.03;3.63;;;2.40;99.90;;;;;;5053169;28;20424;-69
2022/03/18 06:06:47;;;;;;;4.40;2.97;;;2.30;99.90;;;;;;5053023;28;20460;-69
2022/03/18 06:11:59;;;;;;;5.47;3.07;;;2.40;99.90;;;;;;5054809;28;20419;-69
2022/03/18 06:14:26;;;;;;;4.80;3.30;;;2.50;99.90;;;;;;5052532;28;20421;-69
2022/03/18 06:17:00;;;;;;;4.27;3.27;;;2.40;99.90;;;;;;5052712;28;20464;-69
2022/03/18 06:19:28;;;;;;;4.53;3.03;;;2.40;99.90;;;;;;5051632;28;20428;-69
2022/03/18 06:21:54;;;;;;;6.43;3.23;;;2.40;99.90;;;;;;5052902;28;20453;-69
2022/03/18 06:24:21;;;;;;;4.10;2.87;;;2.40;99.90;;;;;;5051388;28;20431;-69
2022/03/18 06:26:51;;;;;;;4.17;3.30;;;2.30;99.90;;;;;;5049113;28;20469;-69
2022/03/18 06:29:19;;;;;;;7.13;3.60;;;2.40;99.90;;;;;;5052888;28;20416;-69
2022/03/18 06:31:44;;;;;;;6.57;3.80;;;2.50;99.90;;;;;;5052932;28;20776;-69
2022/03/18 06:34:11;;;;;;;6.33;3.80;;;2.70;99.90;;;;;;5053011;28;20424;-69
2022/03/18 06:36:37;;;;;;;7.80;4.60;;;2.70;99.90;;;;;;5052375;28;20228;-69
2022/03/18 06:39:07;;;;;;;4.87;3.30;;;2.70;99.90;;;;;;5052770;28;20429;-70
2022/03/18 06:41:33;;;;;;;6.80;3.40;;;2.70;99.90;;;;;;5052613;28;20426;-68
2022/03/18 06:43:59;;;;;;;5.90;3.43;;;2.80;99.90;;;;;;5052540;28;20415;-69
2022/03/18 06:46:25;;;;;;;4.57;3.23;;;2.80;99.90;;;;;;5052482;28;20471;-69
2022/03/18 06:48:51;;;;;;;5.70;4.03;;;2.90;99.90;;;;;;5052502;28;20517;-69
2022/03/18 06:51:17;;;;;;;6.17;3.87;;;3.00;99.90;;;;;;5052548;28;20425;-69
2022/03/18 06:53:44;;;;;;;9.33;4.60;;;3.20;99.90;;;;;;5052402;28;20416;-69
2022/03/18 06:56:12;;;;;;;7.90;3.30;;;3.30;99.90;;;;;;5052262;28;20456;-68
2022/03/18 06:58:38;;;;;;;4.93;3.70;;;3.40;99.90;;;;;;5051964;28;20859;-69
2022/03/18 07:01:04;;;;;;;4.70;3.70;;;3.60;99.90;;;;;;5052368;28;20458;-69
2022/03/18 07:03:29;;;;;;;5.63;3.73;;;3.70;99.90;;;;;;5052145;28;20425;-69
2022/03/18 07:05:55;;;;;;;7.60;4.67;;;3.70;99.90;;;;;;5052101;28;20182;-68
2022/03/18 07:08:21;;;;;;;5.97;3.60;;;3.80;99.90;;;;;;5051905;28;20924;-69
2022/03/18 07:10:47;;;;;;;5.80;3.80;;;3.90;99.90;;;;;;5052384;28;20507;-69
2022/03/18 07:13:14;;;;;;;5.97;3.47;;;4.00;99.90;;;;;;5051911;28;20176;-71
2022/03/18 07:15:39;;;;;;;8.10;4.50;;;4.10;99.90;;;;;;5050874;28;20225;-69
2022/03/18 07:18:06;;;;;;;4.60;2.90;;;4.20;99.90;;;;;;5051443;28;20496;-69
2022/03/18 07:20:34;;;;;;;6.10;3.60;;;4.30;99.90;;;;;;5051680;28;20182;-69
2022/03/18 07:23:16;;;;;;;4.90;3.17;;;4.40;99.90;;;;;;5051729;28;20421;-68
2022/03/18 07:25:45;;;;;;;4.90;3.73;;;4.50;99.90;;;;;;5048742;28;20967;-68
2022/03/18 07:28:13;;;;;;;5.67;3.57;;;4.60;99.90;;;;;;5048983;28;20803;-68
2022/03/18 07:30:41;;;;;;;7.97;4.23;;;4.70;99.90;;;;;;5051445;28;20455;-68
2022/03/18 07:33:07;;;;;;;5.40;3.87;;;4.90;99.90;;;;;;5051545;28;20788;-69
2022/03/18 07:35:35;;;;;;;5.57;3.33;;;5.00;99.90;;;;;;5051403;28;20422;-69
2022/03/18 07:38:02;;;;;;;4.87;3.50;;;5.10;99.90;;;;;;5051339;28;20820;-68
2022/03/18 07:40:28;;;;;;;5.40;3.73;;;5.20;99.90;;;;;;5051247;28;20426;-68
2022/03/18 07:42:56;;;;;;;5.10;3.77;;;5.40;99.90;;;;;;5051460;28;20575;-68
2022/03/18 07:45:27;;;;;;;5.73;3.70;;;5.50;99.90;;;;;;5051336;28;20789;-69
2022/03/18 07:48:02;;;;;;;6.20;4.20;;;5.60;99.90;;;;;;5050992;28;20555;-68
2022/03/18 07:50:29;;;;;;;3.47;3.17;;;5.80;99.90;;;;;;5051313;28;20420;-69
2022/03/18 07:53:02;;;;;;;8.67;3.73;;;5.90;99.90;;;;;;5051548;28;20949;-68
2022/03/18 07:55:30;;;;;;;4.70;2.80;;;6.00;99.90;;;;;;5051259;28;20410;-70
2022/03/18 07:57:56;;;;;;;4.70;2.93;;;6.20;99.90;;;;;;5050977;28;20448;-68
2022/03/18 08:00:22;;;;;;;7.17;3.57;;;6.30;99.90;;;;;;5051150;28;20520;-69
2022/03/18 08:02:50;;;;;;;6.40;3.43;;;6.50;99.90;;;;;;5051106;28;21054;-69
2022/03/18 08:05:16;;;;;;;5.40;2.87;;;6.70;99.90;;;;;;5050985;28;20413;-68
2022/03/18 08:07:44;;;;;;;6.40;4.50;;;6.90;99.90;;;;;;5050695;28;20643;-69
2022/03/18 08:10:14;;;;;;;5.17;3.63;;;7.00;99.90;;;;;;5051011;28;20512;-69
2022/03/18 08:12:41;;;;;;;5.70;3.73;;;7.10;99.90;;;;;;5050918;28;20979;-68
2022/03/18 08:15:10;;;;;;;4.03;2.63;;;7.20;99.90;;;;;;5050765;28;20890;-69
2022/03/18 08:17:38;;;;;;;3.80;2.83;;;7.40;99.90;;;;;;5043138;28;20468;-69
2022/03/18 08:20:06;;;;;;;6.27;3.57;;;7.50;99.90;;;;;;5050661;28;20423;-68
2022/03/18 08:22:31;;;;;;;3.83;3.03;;;7.60;99.90;;;;;;5034177;28;20458;-68
2022/03/18 08:24:57;;;;;;;4.00;3.40;;;7.70;99.90;;;;;;5047337;28;20459;-70
2022/03/18 08:27:23;;;;;;;5.20;3.10;;;7.80;99.90;;;;;;5050038;28;20541;-69
2022/03/18 08:29:49;;;;;;;6.00;2.90;;;7.90;99.90;;;;;;5050637;28;20190;-69
2022/03/18 08:32:17;;;;;;;4.70;3.17;;;8.10;99.90;;;;;;5050496;28;20452;-69
2022/03/18 08:34:43;;;;;;;4.53;2.70;;;8.20;99.90;;;;;;5043909;28;20289;-69
2022/03/18 08:37:10;;;;;;;8.57;3.50;;;8.30;99.90;;;;;;5050019;28;20446;-70
2022/03/18 08:39:41;;;;;;;5.87;2.90;;;8.40;99.90;;;;;;5047701;28;20952;-69
2022/03/18 08:42:07;;;;;;;6.07;3.30;;;8.60;99.90;;;;;;5050378;28;20426;-68
2022/03/18 08:44:33;;;;;;;3.97;2.40;;;8.70;99.90;;;;;;5044495;28;20430;-69
2022/03/18 08:47:00;;;;;;;3.70;2.47;;;8.80;99.90;;;;;;5049472;28;20729;-68
2022/03/18 08:49:25;;;;;;;4.83;2.27;;;8.90;99.90;;;;;;5049864;28;20434;-71
2022/03/18 08:51:51;;;;;;;4.10;2.20;;;9.00;99.90;;;;;;5050159;28;20464;-69
2022/03/18 08:54:21;;;;;;;3.70;2.40;;;9.20;99.90;;;;;;5050087;28;20180;-69
2022/03/18 08:56:47;;;;;;;6.13;2.93;;;9.30;99.90;;;;;;5048206;28;20203;-68
2022/03/18 08:59:13;;;;;;;4.77;2.87;;;9.30;99.90;;;;;;5050082;28;20414;-68
2022/03/18 09:01:39;;;;;;;4.80;2.80;;;9.40;99.90;;;;;;5049590;28;20437;-68
2022/03/18 09:04:05;;;;;;;3.60;2.50;;;9.50;99.90;;;;;;5050245;28;20939;-69
2022/03/18 09:06:31;;;;;;;4.63;2.63;;;9.40;99.90;;;;;;5045040;28;20477;-68
2022/03/18 09:09:02;;;;;;;4.33;2.67;;;9.50;99.90;;;;;;5041633;28;20176;-69
2022/03/18 09:11:31;;;;;;;5.03;2.83;;;9.50;99.90;;;;;;5049806;28;20176;-69
2022/03/18 09:13:57;;;;;;;9.90;3.23;;;9.60;99.90;;;;;;5049818;28;20906;-69
2022/03/18 09:16:22;;;;;;;5.00;2.93;;;9.70;99.90;;;;;;5049512;28;20473;-69
2022/03/18 09:18:48;;;;;;;4.17;2.50;;;9.70;99.90;;;;;;5050000;28;20191;-68
2022/03/18 09:21:14;;;;;;;4.20;2.83;;;9.70;99.90;;;;;;5049966;28;20187;-69
2022/03/18 09:23:41;;;;;;;3.60;2.73;;;9.90;99.90;;;;;;5049949;28;20554;-68
2022/03/18 09:26:07;;;;;;;3.70;2.60;;;10.00;99.90;;;;;;5049397;28;20305;-69
2022/03/18 09:28:33;;;;;;;4.20;1.93;;;10.00;99.90;;;;;;5049303;28;20506;-69
2022/03/18 09:31:02;;;;;;;3.73;2.40;;;10.20;99.90;;;;;;5040676;28;20190;-69
2022/03/18 09:33:27;;;;;;;3.43;2.17;;;10.20;99.90;;;;;;5048913;28;20172;-69
2022/03/18 09:35:53;;;;;;;3.10;2.10;;;10.40;99.90;;;;;;5049641;28;20823;-69
2022/03/18 09:38:19;;;;;;;3.73;2.20;;;10.70;99.90;;;;;;5049235;28;20184;-69
2022/03/18 09:40:45;;;;;;;4.00;2.17;;;10.80;99.90;;;;;;5049489;28;20642;-69
2022/03/18 09:43:11;;;;;;;4.60;2.10;;;10.90;99.90;;;;;;5049408;28;20258;-69
2022/03/18 09:45:39;;;;;;;3.23;2.20;;;11.00;99.90;;;;;;5049563;28;20509;-69
2022/03/18 09:48:10;;;;;;;4.33;1.90;;;11.30;99.90;;;;;;5049294;28;20516;-68
2022/03/18 09:50:37;;;;;;;5.03;2.07;;;11.60;99.90;;;;;;5052621;28;20406;-69
2022/03/18 09:53:04;;;;;;;3.80;2.00;;;12.70;99.90;;;;;;5053424;28;20939;-68
2022/03/18 09:55:34;;;;;;;3.10;1.60;;;15.10;99.90;;;;;;5036683;28;20458;-70
2022/03/18 09:58:01;;;;;;;6.53;2.20;;;;;;;;;;5052895;28;20511;-69
2022/03/18 10:00:27;;;;;;;3.67;1.90;;;20.20;81.50;;;;;;5053192;28;20429;-69
2022/03/18 10:03:16;;;;;;;3.93;2.43;;;22.70;67.30;;;;;;5052943;28;20885;-70
2022/03/18 10:05:59;;;;;;;3.70;2.47;;;24.90;55.70;;;;;;5053034;28;20508;-71
2022/03/18 10:08:27;;;;;;;4.27;2.60;;;25.90;51.90;;;;;;5052681;28;20801;-69
2022/03/18 10:10:53;;;;;;;4.67;2.63;;;25.50;46.50;;;;;;5053036;28;20940;-67
2022/03/18 10:13:20;;;;;;;4.40;2.33;;;26.90;45.00;;;;;;5052533;28;20414;-68
2022/03/18 10:15:46;;;;;;;5.10;3.67;;;27.30;41.30;;;;;;5052779;28;20312;-68
2022/03/18 10:18:14;;;;;;;3.60;2.27;;;27.70;41.70;;;;;;5052530;28;20446;-68
2022/03/18 10:20:42;;;;;;;3.50;2.20;;;29.20;42.10;;;;;;5052873;28;20433;-70
2022/03/18 10:23:17;;;;;;;3.50;2.20;;;30.70;37.90;;;;;;5052843;28;21014;-69
2022/03/18 10:25:50;;;;;;;4.20;2.17;;;30.80;36.60;;;;;;5052198;28;20878;-70
2022/03/18 10:28:36;;;;;;;3.87;2.70;;;31.90;36.00;;;;;;5052337;28;20418;-67
2022/03/18 10:31:29;;;;;;;4.33;2.30;;;32.10;35.20;;;;;;5052341;28;20440;-69
2022/03/18 10:37:11;;;;;;;4.50;1.77;;;33.10;29.40;;;;;;5053972;28;20508;-68
2022/03/18 10:39:39;;;;;;;4.37;2.00;;;34.50;30.40;;;;;;5052146;28;20425;-68
2022/03/18 10:42:10;;;;;;;5.30;1.83;;;34.90;28.80;;;;;;5072667;23;20518;-83
2022/03/18 10:44:48;;;;;;;3.23;1.60;;;36.40;28.10;;;;;;5014959;28;20460;-87
2022/03/18 10:47:31;;;;;;;3.67;1.63;;;36.40;28.60;;;;;;5013962;28;20961;-87
2022/03/18 10:50:17;;;;;;;2.87;1.80;;;37.20;27.40;;;;;;5011874;28;20435;-87
2022/03/18 10:52:48;;;;;;;3.50;1.67;;;37.90;26.40;;;;;;5013171;28;20498;-87
2022/03/18 10:55:20;;;;;;;3.97;1.70;;;37.90;25.70;;;;;;5013065;28;20420;-87
2022/03/18 10:57:54;;;;;;;3.03;1.57;;;37.90;24.80;;;;;;5012635;28;20459;-85
2022/03/18 11:00:21;;;;;;;2.40;1.40;;;37.80;25.30;;;;;;5029428;28;20451;-85
2022/03/18 11:02:53;;;;;;;3.00;1.37;;;36.80;24.10;;;;;;5029053;28;20534;-85
2022/03/18 11:05:22;;;;;;;4.20;1.30;;;36.60;24.70;;;;;;5029239;28;20469;-87
2022/03/18 11:07:50;;;;;;;3.83;1.60;;;36.80;25.00;;;;;;5029119;28;21022;-87
2022/03/18 11:13:03;;;;;;;3.03;1.30;;;36.10;23.50;;;;;;5014087;28;20498;-86
2022/03/18 11:15:34;;;;;;;2.63;1.53;;;35.00;24.20;;;;;;5029189;28;20416;-87
2022/03/18 11:18:03;;;;;;;2.17;1.17;;;36.00;24.10;;;;;;5028822;28;20451;-86
2022/03/18 11:20:32;;;;;;;2.70;1.50;;;36.00;24.30;;;;;;5028943;28;20515;-87
2022/03/18 11:22:58;;;;;;;2.50;1.30;;;35.60;24.40;;;;;;5028977;28;20443;-86
2022/03/18 11:25:25;;;;;;;3.23;1.13;;;35.30;24.30;;;;;;5012283;28;20420;-85
2022/03/18 11:27:52;;;;;;;3.07;1.20;;;34.80;24.00;;;;;;5028658;28;20547;-86
2022/03/18 11:30:22;;;;;;;2.53;0.90;;;33.70;23.50;;;;;;5028895;28;20469;-86
2022/03/18 11:33:06;;;;;;;2.60;1.30;;;33.10;24.40;;;;;;5013585;28;20459;-86
2022/03/18 11:35:50;;;;;;;2.87;1.30;;;32.60;25.20;;;;;;5012042;28;20503;-85
2022/03/18 11:38:23;;;;;;;3.07;1.53;;;32.40;25.80;;;;;;5012010;28;20470;-86
2022/03/18 11:40:58;;;;;;;2.77;1.13;;;32.20;25.30;;;;;;5012527;28;20420;-85
2022/03/18 11:43:42;;;;;;;2.60;1.40;;;31.10;24.40;;;;;;5028532;28;20455;-86
2022/03/18 11:46:14;;;;;;;2.30;1.30;;;31.70;25.50;;;;;;5011936;28;20503;-87
2022/03/18 11:49:05;;;;;;;3.03;1.40;;;32.30;25.70;;;;;;5011978;28;20420;-86
2022/03/18 11:51:32;;;;;;;2.40;1.30;;;32.30;25.00;;;;;;5028703;28;20507;-87
2022/03/18 11:54:02;;;;;;;2.80;1.70;;;30.90;25.80;;;;;;5008056;28;20473;-87
2022/03/18 11:56:41;;;;;;;2.20;1.20;;;30.70;26.80;;;;;;5010800;28;20208;-87
2022/03/18 11:59:25;;;;;;;3.17;1.27;;;31.40;26.30;;;;;;5011805;28;20432;-86
2022/03/18 12:02:12;;;;;;;2.30;1.37;;;32.70;27.00;;;;;;5011432;28;20816;-87
2022/03/18 12:04:47;;;;;;;3.37;1.30;;;32.40;24.90;;;;;;5008348;28;20416;-87
2022/03/18 12:07:28;;;;;;;3.13;1.30;;;31.90;25.10;;;;;;4991469;28;20520;-86
2022/03/18 12:10:14;;;;;;;2.40;1.37;;;31.50;24.80;;;;;;4993217;28;20404;-86
2022/03/18 12:12:48;;;;;;;2.30;1.13;;;31.90;26.00;;;;;;4996650;28;20555;-88
2022/03/18 12:15:18;;;;;;;3.10;1.00;;;32.10;25.50;;;;;;5026795;28;20858;-87
2022/03/18 12:17:53;;;;;;;2.40;1.13;;;32.50;25.20;;;;;;5012379;28;20447;-87
2022/03/18 12:20:38;;;;;;;2.70;1.30;;;32.90;25.40;;;;;;5027699;28;20423;-87
2022/03/18 12:23:08;;;;;;;3.90;1.60;;;31.40;25.60;;;;;;5012444;28;20436;-87
2022/03/18 12:25:36;;;;;;;2.53;1.20;;;29.40;25.50;;;;;;5027148;28;20420;-87
2022/03/18 12:28:03;;;;;;;3.57;1.53;;;29.40;26.30;;;;;;5011140;28;20493;-85
2022/03/18 12:30:30;;;;;;;2.73;1.50;;;30.50;26.30;;;;;;5021086;28;20432;-86
2022/03/18 12:33:04;;;;;;;2.50;1.20;;;30.40;26.00;;;;;;4998168;28;20831;-86
2022/03/18 12:35:36;;;;;;;2.50;1.20;;;31.20;25.60;;;;;;5010722;28;20420;-86
2022/03/18 12:38:08;;;;;;;2.20;1.10;;;32.20;25.50;;;;;;5002284;28;20455;-87
2022/03/18 12:40:40;;;;;;;2.30;1.10;;;33.10;24.60;;;;;;5011842;28;20442;-87
2022/03/18 12:43:07;;;;;;;2.43;1.40;;;33.40;24.20;;;;;;5010978;28;20836;-87
2022/03/18 12:45:38;;;;;;;2.73;1.63;;;34.10;24.40;;;;;;5010714;28;20436;-87
2022/03/18 12:48:10;;;;;;;2.80;1.10;;;33.90;23.60;;;;;;5010861;28;20593;-86
2022/03/18 12:50:49;;;;;;;2.60;1.57;;;32.10;23.70;;;;;;5019503;28;20455;-86
2022/03/18 12:53:20;;;;;;;2.30;1.10;;;32.20;24.30;;;;;;5027181;28;20458;-86
2022/03/18 12:55:49;;;;;;;3.13;1.60;;;31.90;24.10;;;;;;5027114;28;20416;-86
2022/03/18 12:58:15;;;;;;;2.10;0.93;;;32.10;23.80;;;;;;5011781;28;20466;-87
2022/03/18 13:00:46;;;;;;;2.70;1.20;;;32.50;24.40;;;;;;5010837;28;20432;-87
2022/03/18 13:03:17;;;;;;;2.30;1.00;;;32.80;23.60;;;;;;5027102;28;20193;-87
2022/03/18 13:05:45;;;;;;;2.50;1.20;;;31.40;23.40;;;;;;5010702;28;20957;-87
2022/03/18 13:08:11;;;;;;;2.93;1.20;;;29.50;23.90;;;;;;5027198;28;20426;-85
2022/03/18 13:10:37;;;;;;;2.13;0.93;;;30.00;24.70;;;;;;5027655;28;20451;-84
2022/03/18 13:13:13;;;;;;;2.70;1.20;;;30.70;24.80;;;;;;5012625;28;20446;-86
2022/03/18 13:15:44;;;;;;;2.20;1.00;;;31.20;24.00;;;;;;4992151;28;20408;-87
2022/03/18 13:18:12;;;;;;;2.67;1.10;;;32.80;23.60;;;;;;4992159;28;20588;-87
2022/03/18 13:20:40;;;;;;;2.70;1.07;;;32.80;23.00;;;;;;4992170;28;20496;-87